sensor_id;sensor_type;location;lat;lon;timestamp;pressure;altitude;pressure_sealevel;temperature;humidity
9796;BME280;4937;42.680;27.704;2024-03-08T00:01:39;101819.81;;;8.13;68.87
9796;BME280;4937;42.680;27.704;2024-03-08T00:04:06;101822.56;;;8.16;69.06
9796;BME280;4937;42.680;27.704;2024-03-08T00:06:32;101815.09;;;8.20;68.54
9796;BME280;4937;42.680;27.704;2024-03-08T00:08:57;101808.81;;;8.20;68.64
9796;BME280;4937;42.680;27.704;2024-03-08T00:11:23;101820.59;;;8.20;68.36
9796;BME280;4937;42.680;27.704;2024-03-08T00:13:52;101816.28;;;8.16;68.98
9796;BME280;4937;42.680;27.704;2024-03-08T00:16:18;101818.63;;;8.14;69.22
9796;BME280;4937;42.680;27.704;2024-03-08T00:18:45;101816.66;;;8.14;68.74
9796;BME280;4937;42.680;27.704;2024-03-08T00:21:10;101813.53;;;8.12;69.27
9796;BME280;4937;42.680;27.704;2024-03-08T00:23:37;101815.50;;;8.12;69.39
9796;BME280;4937;42.680;27.704;2024-03-08T00:26:03;101804.50;;;8.08;69.37
9796;BME280;4937;42.680;27.704;2024-03-08T00:28:29;101800.19;;;8.11;69.25
9796;BME280;4937;42.680;27.704;2024-03-08T00:30:56;101796.28;;;7.97;69.55
9796;BME280;4937;42.680;27.704;2024-03-08T00:33:21;101797.88;;;7.98;70.01
9796;BME280;4937;42.680;27.704;2024-03-08T00:35:47;101788.44;;;7.96;70.31
9796;BME280;4937;42.680;27.704;2024-03-08T00:38:13;101795.88;;;8.02;70.13
9796;BME280;4937;42.680;27.704;2024-03-08T00:40:38;101791.19;;;7.75;71.16
9796;BME280;4937;42.680;27.704;2024-03-08T00:43:06;101787.25;;;7.93;71.21
9796;BME280;4937;42.680;27.704;2024-03-08T00:45:31;101788.44;;;7.92;70.91
9796;BME280;4937;42.680;27.704;2024-03-08T00:47:57;101790.41;;;7.92;70.78
9796;BME280;4937;42.680;27.704;2024-03-08T00:50:22;101790.03;;;7.72;71.96
9796;BME280;4937;42.680;27.704;2024-03-08T00:52:48;101788.06;;;7.80;71.63
9796;BME280;4937;42.680;27.704;2024-03-08T00:55:13;101786.50;;;7.75;72.06
9796;BME280;4937;42.680;27.704;2024-03-08T00:57:39;101784.13;;;7.84;72.07
9796;BME280;4937;42.680;27.704;2024-03-08T01:00:06;101783.75;;;7.79;72.38
9796;BME280;4937;42.680;27.704;2024-03-08T01:02:35;101781.78;;;7.62;73.40
9796;BME280;4937;42.680;27.704;2024-03-08T01:05:01;101774.72;;;7.68;73.69
9796;BME280;4937;42.680;27.704;2024-03-08T01:07:27;101774.72;;;7.61;73.87
9796;BME280;4937;42.680;27.704;2024-03-08T01:09:52;101777.88;;;7.59;74.33
9796;BME280;4937;42.680;27.704;2024-03-08T01:12:18;101772.78;;;7.58;74.46
9796;BME280;4937;42.680;27.704;2024-03-08T01:14:43;101775.53;;;7.54;74.69
9796;BME280;4937;42.680;27.704;2024-03-08T01:17:09;101776.28;;;7.62;74.48
9796;BME280;4937;42.680;27.704;2024-03-08T01:19:35;101780.59;;;7.56;74.70
9796;BME280;4937;42.680;27.704;2024-03-08T01:22:00;101777.06;;;7.45;75.47
9796;BME280;4937;42.680;27.704;2024-03-08T01:24:26;101778.25;;;7.54;74.99
9796;BME280;4937;42.680;27.704;2024-03-08T01:26:51;101778.22;;;7.40;75.53
9796;BME280;4937;42.680;27.704;2024-03-08T01:29:17;101772.34;;;7.38;75.89
9796;BME280;4937;42.680;27.704;2024-03-08T01:31:42;101773.13;;;7.42;75.62
9796;BME280;4937;42.680;27.704;2024-03-08T01:34:08;101770.41;;;7.46;75.91
9796;BME280;4937;42.680;27.704;2024-03-08T01:36:33;101770.41;;;7.35;76.43
9796;BME280;4937;42.680;27.704;2024-03-08T01:38:59;101789.59;;;7.35;76.30
9796;BME280;4937;42.680;27.704;2024-03-08T01:41:24;101784.09;;;7.25;76.69
9796;BME280;4937;42.680;27.704;2024-03-08T01:43:50;101782.53;;;7.34;77.02
9796;BME280;4937;42.680;27.704;2024-03-08T01:46:19;101788.38;;;7.19;77.81
9796;BME280;4937;42.680;27.704;2024-03-08T01:48:47;101786.44;;;7.16;78.22
9796;BME280;4937;42.680;27.704;2024-03-08T01:51:14;101785.66;;;7.19;78.50
9796;BME280;4937;42.680;27.704;2024-03-08T01:53:40;101784.84;;;7.15;79.16
9796;BME280;4937;42.680;27.704;2024-03-08T01:56:07;101782.09;;;7.04;79.87
9796;BME280;4937;42.680;27.704;2024-03-08T01:58:34;101782.50;;;7.10;79.63
9796;BME280;4937;42.680;27.704;2024-03-08T02:01:01;101787.56;;;7.04;80.15
9796;BME280;4937;42.680;27.704;2024-03-08T02:03:29;101784.44;;;7.06;80.30
9796;BME280;4937;42.680;27.704;2024-03-08T02:05:57;101787.19;;;7.06;80.34
9796;BME280;4937;42.680;27.704;2024-03-08T02:08:24;101795.00;;;7.07;80.99
9796;BME280;4937;42.680;27.704;2024-03-08T02:10:50;101786.38;;;7.05;81.15
9796;BME280;4937;42.680;27.704;2024-03-08T02:13:16;101789.53;;;7.07;81.10
9796;BME280;4937;42.680;27.704;2024-03-08T02:16:00;101787.59;;;7.11;81.28
9796;BME280;4937;42.680;27.704;2024-03-08T02:18:27;101789.94;;;7.09;82.04
9796;BME280;4937;42.680;27.704;2024-03-08T02:20:58;101795.00;;;7.03;81.67
9796;BME280;4937;42.680;27.704;2024-03-08T02:23:24;101796.94;;;7.03;82.32
9796;BME280;4937;42.680;27.704;2024-03-08T02:25:53;101793.06;;;7.04;82.37
9796;BME280;4937;42.680;27.704;2024-03-08T02:28:20;101800.50;;;7.07;82.58
9796;BME280;4937;42.680;27.704;2024-03-08T02:30:46;101795.00;;;7.11;82.76
9796;BME280;4937;42.680;27.704;2024-03-08T02:33:14;101797.34;;;7.01;82.67
9796;BME280;4937;42.680;27.704;2024-03-08T02:35:42;101800.09;;;7.09;82.84
9796;BME280;4937;42.680;27.704;2024-03-08T02:38:07;101796.19;;;7.03;83.12
9796;BME280;4937;42.680;27.704;2024-03-08T02:40:33;101797.34;;;7.05;82.62
9796;BME280;4937;42.680;27.704;2024-03-08T02:42:59;101798.16;;;7.06;83.24
9796;BME280;4937;42.680;27.704;2024-03-08T02:45:24;101801.28;;;7.08;83.14
9796;BME280;4937;42.680;27.704;2024-03-08T02:47:50;101799.34;;;7.12;83.33
9796;BME280;4937;42.680;27.704;2024-03-08T02:50:16;101797.00;;;7.14;83.28
9796;BME280;4937;42.680;27.704;2024-03-08T02:52:42;101795.03;;;7.18;83.07
9796;BME280;4937;42.680;27.704;2024-03-08T02:55:09;101787.22;;;7.23;83.47
9796;BME280;4937;42.680;27.704;2024-03-08T02:57:36;101794.66;;;7.23;83.23
9796;BME280;4937;42.680;27.704;2024-03-08T03:00:02;101796.22;;;7.20;83.36
9796;BME280;4937;42.680;27.704;2024-03-08T03:02:29;101791.94;;;7.23;83.73
9796;BME280;4937;42.680;27.704;2024-03-08T03:04:54;101793.47;;;7.17;83.84
9796;BME280;4937;42.680;27.704;2024-03-08T03:07:21;101788.38;;;7.19;83.33
9796;BME280;4937;42.680;27.704;2024-03-08T03:09:47;101786.00;;;7.07;81.41
9796;BME280;4937;42.680;27.704;2024-03-08T03:12:12;101784.44;;;7.09;82.21
9796;BME280;4937;42.680;27.704;2024-03-08T03:14:39;101787.19;;;7.09;83.23
9796;BME280;4937;42.680;27.704;2024-03-08T03:17:05;101782.47;;;6.99;81.27
9796;BME280;4937;42.680;27.704;2024-03-08T03:19:30;101784.81;;;7.00;82.30
9796;BME280;4937;42.680;27.704;2024-03-08T03:21:56;101787.19;;;7.06;82.40
9796;BME280;4937;42.680;27.704;2024-03-08T03:24:22;101786.78;;;7.14;82.87
9796;BME280;4937;42.680;27.704;2024-03-08T03:26:49;101784.44;;;7.06;81.21
9796;BME280;4937;42.680;27.704;2024-03-08T03:29:15;101784.81;;;7.00;81.85
9796;BME280;4937;42.680;27.704;2024-03-08T03:31:42;101789.13;;;7.01;81.12
9796;BME280;4937;42.680;27.704;2024-03-08T03:34:10;101791.44;;;6.96;81.11
9796;BME280;4937;42.680;27.704;2024-03-08T03:36:37;101790.25;;;6.86;81.75
9796;BME280;4937;42.680;27.704;2024-03-08T03:39:07;101785.13;;;6.81;81.71
9796;BME280;4937;42.680;27.704;2024-03-08T03:41:38;101790.63;;;6.81;82.28
9796;BME280;4937;42.680;27.704;2024-03-08T03:44:05;101782.00;;;6.83;81.44
9796;BME280;4937;42.680;27.704;2024-03-08T03:46:32;101793.34;;;6.81;81.89
9796;BME280;4937;42.680;27.704;2024-03-08T03:48:58;101798.03;;;6.81;82.58
9796;BME280;4937;42.680;27.704;2024-03-08T03:51:24;101788.69;;;6.85;82.17
9796;BME280;4937;42.680;27.704;2024-03-08T03:53:49;101796.13;;;6.88;82.42
9796;BME280;4937;42.680;27.704;2024-03-08T03:56:15;101790.25;;;6.90;81.53
9796;BME280;4937;42.680;27.704;2024-03-08T03:58:40;101787.50;;;6.90;80.48
9796;BME280;4937;42.680;27.704;2024-03-08T04:01:06;101789.88;;;6.88;81.53
9796;BME280;4937;42.680;27.704;2024-03-08T04:03:31;101790.63;;;6.88;81.47
9796;BME280;4937;42.680;27.704;2024-03-08T04:05:57;101796.09;;;6.85;80.99
9796;BME280;4937;42.680;27.704;2024-03-08T04:08:22;101798.06;;;6.84;80.05
9796;BME280;4937;42.680;27.704;2024-03-08T04:10:51;101804.72;;;6.83;79.98
9796;BME280;4937;42.680;27.704;2024-03-08T04:13:16;101804.31;;;6.81;79.67
9796;BME280;4937;42.680;27.704;2024-03-08T04:15:42;101796.09;;;6.78;80.26
9796;BME280;4937;42.680;27.704;2024-03-08T04:18:10;101795.63;;;6.62;78.99
9796;BME280;4937;42.680;27.704;2024-03-08T04:20:36;101793.63;;;6.59;79.35
9796;BME280;4937;42.680;27.704;2024-03-08T04:23:02;101793.22;;;6.53;79.56
9796;BME280;4937;42.680;27.704;2024-03-08T04:25:27;101797.91;;;6.49;80.40
9796;BME280;4937;42.680;27.704;2024-03-08T04:27:53;101805.78;;;6.54;80.98
9796;BME280;4937;42.680;27.704;2024-03-08T04:30:18;101805.41;;;6.59;80.41
9796;BME280;4937;42.680;27.704;2024-03-08T04:32:46;101806.53;;;6.55;80.20
9796;BME280;4937;42.680;27.704;2024-03-08T04:35:13;101792.06;;;6.54;80.55
9796;BME280;4937;42.680;27.704;2024-03-08T04:37:40;101796.78;;;6.57;81.10
9796;BME280;4937;42.680;27.704;2024-03-08T04:40:05;101788.97;;;6.63;80.59
9796;BME280;4937;42.680;27.704;2024-03-08T04:42:31;101790.94;;;6.66;80.05
9796;BME280;4937;42.680;27.704;2024-03-08T04:44:58;101791.69;;;6.56;79.94
9796;BME280;4937;42.680;27.704;2024-03-08T04:47:24;101799.13;;;6.59;79.60
9796;BME280;4937;42.680;27.704;2024-03-08T04:49:50;101798.72;;;6.60;79.49
9796;BME280;4937;42.680;27.704;2024-03-08T04:52:16;101800.31;;;6.61;79.86
9796;BME280;4937;42.680;27.704;2024-03-08T04:54:42;101808.50;;;6.51;80.08
9796;BME280;4937;42.680;27.704;2024-03-08T04:57:08;101805.34;;;6.45;79.81
9796;BME280;4937;42.680;27.704;2024-03-08T04:59:33;101816.75;;;6.58;79.61
9796;BME280;4937;42.680;27.704;2024-03-08T05:01:59;101811.28;;;6.65;79.45
9796;BME280;4937;42.680;27.704;2024-03-08T05:04:25;101807.00;;;6.67;78.72
9796;BME280;4937;42.680;27.704;2024-03-08T05:06:50;101812.09;;;6.69;78.44
9796;BME280;4937;42.680;27.704;2024-03-08T05:09:16;101815.59;;;6.66;78.45
9796;BME280;4937;42.680;27.704;2024-03-08T05:11:43;101819.91;;;6.67;79.26
9796;BME280;4937;42.680;27.704;2024-03-08T05:14:09;101821.47;;;6.68;78.84
9796;BME280;4937;42.680;27.704;2024-03-08T05:16:35;101823.84;;;6.69;78.71
9796;BME280;4937;42.680;27.704;2024-03-08T05:19:03;101821.06;;;6.62;78.74
9796;BME280;4937;42.680;27.704;2024-03-08T05:21:29;101827.75;;;6.72;78.23
9796;BME280;4937;42.680;27.704;2024-03-08T05:23:55;101830.88;;;6.63;78.79
9796;BME280;4937;42.680;27.704;2024-03-08T05:26:20;101830.13;;;6.73;78.69
9796;BME280;4937;42.680;27.704;2024-03-08T05:28:47;101837.63;;;6.83;77.73
9796;BME280;4937;42.680;27.704;2024-03-08T05:31:23;101838.00;;;6.78;77.27
9796;BME280;4937;42.680;27.704;2024-03-08T05:33:49;101850.91;;;6.78;78.09
9796;BME280;4937;42.680;27.704;2024-03-08T05:36:14;101844.25;;;6.82;76.85
9796;BME280;4937;42.680;27.704;2024-03-08T05:38:43;101850.09;;;6.77;77.31
9796;BME280;4937;42.680;27.704;2024-03-08T05:41:09;101842.69;;;6.78;76.84
9796;BME280;4937;42.680;27.704;2024-03-08T05:43:34;101851.31;;;6.80;77.99
9796;BME280;4937;42.680;27.704;2024-03-08T05:46:00;101851.31;;;6.83;78.10
9796;BME280;4937;42.680;27.704;2024-03-08T05:48:25;101859.16;;;6.88;77.83
9796;BME280;4937;42.680;27.704;2024-03-08T05:50:51;101848.97;;;6.85;75.19
9796;BME280;4937;42.680;27.704;2024-03-08T05:53:16;101848.13;;;6.71;76.15
9796;BME280;4937;42.680;27.704;2024-03-08T05:55:42;101854.03;;;6.73;77.36
9796;BME280;4937;42.680;27.704;2024-03-08T05:58:07;101849.34;;;6.80;77.56
9796;BME280;4937;42.680;27.704;2024-03-08T06:00:34;101854.47;;;6.85;77.73
9796;BME280;4937;42.680;27.704;2024-03-08T06:03:01;101859.25;;;6.99;76.90
9796;BME280;4937;42.680;27.704;2024-03-08T06:05:27;101854.16;;;7.05;76.64
9796;BME280;4937;42.680;27.704;2024-03-08T06:07:53;101846.31;;;7.07;75.39
9796;BME280;4937;42.680;27.704;2024-03-08T06:10:19;101848.19;;;6.81;74.94
9796;BME280;4937;42.680;27.704;2024-03-08T06:12:44;101863.09;;;6.91;75.30
9796;BME280;4937;42.680;27.704;2024-03-08T06:15:10;101855.69;;;6.95;75.15
9796;BME280;4937;42.680;27.704;2024-03-08T06:17:40;101865.09;;;6.97;74.27
9796;BME280;4937;42.680;27.704;2024-03-08T06:20:06;101852.97;;;6.98;75.02
9796;BME280;4937;42.680;27.704;2024-03-08T06:22:37;101865.91;;;7.09;75.29
9796;BME280;4937;42.680;27.704;2024-03-08T06:25:06;101869.78;;;6.93;75.14
9796;BME280;4937;42.680;27.704;2024-03-08T06:27:32;101869.03;;;7.03;75.87
9796;BME280;4937;42.680;27.704;2024-03-08T06:30:01;101876.13;;;7.08;75.98
9796;BME280;4937;42.680;27.704;2024-03-08T06:32:27;101874.22;;;7.26;75.98
9796;BME280;4937;42.680;27.704;2024-03-08T06:34:53;101875.03;;;7.30;75.65
9796;BME280;4937;42.680;27.704;2024-03-08T06:37:18;101865.97;;;7.16;74.54
9796;BME280;4937;42.680;27.704;2024-03-08T06:39:49;101863.81;;;6.81;74.86
9796;BME280;4937;42.680;27.704;2024-03-08T06:42:17;101866.19;;;6.82;76.16
9796;BME280;4937;42.680;27.704;2024-03-08T06:44:42;101885.03;;;6.87;76.13
9796;BME280;4937;42.680;27.704;2024-03-08T06:47:15;101867.84;;;7.01;76.36
9796;BME280;4937;42.680;27.704;2024-03-08T06:49:44;101882.34;;;7.01;76.35
9796;BME280;4937;42.680;27.704;2024-03-08T06:52:11;101873.41;;;7.15;75.62
9796;BME280;4937;42.680;27.704;2024-03-08T06:54:37;101882.44;;;7.26;75.17
9796;BME280;4937;42.680;27.704;2024-03-08T06:57:05;101877.72;;;7.23;75.11
9796;BME280;4937;42.680;27.704;2024-03-08T06:59:32;101878.91;;;7.19;74.41
9796;BME280;4937;42.680;27.704;2024-03-08T07:01:57;101869.50;;;7.23;74.98
9796;BME280;4937;42.680;27.704;2024-03-08T07:04:25;101879.31;;;7.28;75.01
9796;BME280;4937;42.680;27.704;2024-03-08T07:06:54;101884.81;;;7.28;76.12
9796;BME280;4937;42.680;27.704;2024-03-08T07:09:19;101876.56;;;7.28;75.82
9796;BME280;4937;42.680;27.704;2024-03-08T07:11:45;101879.31;;;7.28;74.26
9796;BME280;4937;42.680;27.704;2024-03-08T07:14:12;101894.59;;;7.29;74.79
9796;BME280;4937;42.680;27.704;2024-03-08T07:16:37;101885.94;;;7.23;75.39
9796;BME280;4937;42.680;27.704;2024-03-08T07:19:04;101882.06;;;7.24;75.17
9796;BME280;4937;42.680;27.704;2024-03-08T07:21:31;101893.03;;;7.24;76.19
9796;BME280;4937;42.680;27.704;2024-03-08T07:23:56;101893.06;;;7.38;75.51
9796;BME280;4937;42.680;27.704;2024-03-08T07:26:25;101901.69;;;7.40;75.91
9796;BME280;4937;42.680;27.704;2024-03-08T07:28:50;101889.56;;;7.41;75.67
9796;BME280;4937;42.680;27.704;2024-03-08T07:31:16;101895.78;;;7.35;74.89
9796;BME280;4937;42.680;27.704;2024-03-08T07:33:41;101897.72;;;7.31;75.70
9796;BME280;4937;42.680;27.704;2024-03-08T07:36:07;101891.06;;;7.25;76.35
9796;BME280;4937;42.680;27.704;2024-03-08T07:38:33;101894.94;;;7.10;76.80
9796;BME280;4937;42.680;27.704;2024-03-08T07:41:00;101894.53;;;7.08;76.17
9796;BME280;4937;42.680;27.704;2024-03-08T07:43:26;101904.25;;;6.98;75.99
9796;BME280;4937;42.680;27.704;2024-03-08T07:45:51;101902.31;;;7.02;77.07
9796;BME280;4937;42.680;27.704;2024-03-08T07:48:18;101901.53;;;7.01;76.55
9796;BME280;4937;42.680;27.704;2024-03-08T07:50:43;101900.78;;;7.05;77.04
9796;BME280;4937;42.680;27.704;2024-03-08T07:53:09;101906.63;;;7.03;78.16
9796;BME280;4937;42.680;27.704;2024-03-08T07:55:35;101908.63;;;7.10;77.92
9796;BME280;4937;42.680;27.704;2024-03-08T07:58:02;101899.25;;;7.14;77.55
9796;BME280;4937;42.680;27.704;2024-03-08T08:00:28;101913.72;;;7.08;77.88
9796;BME280;4937;42.680;27.704;2024-03-08T08:02:55;101903.56;;;7.12;77.19
9796;BME280;4937;42.680;27.704;2024-03-08T08:05:21;101896.91;;;7.23;77.55
9796;BME280;4937;42.680;27.704;2024-03-08T08:07:46;101907.94;;;7.30;77.43
9796;BME280;4937;42.680;27.704;2024-03-08T08:10:15;101902.06;;;7.35;76.89
9796;BME280;4937;42.680;27.704;2024-03-08T08:12:50;101902.09;;;7.39;76.02
9796;BME280;4937;42.680;27.704;2024-03-08T08:15:17;101903.28;;;7.45;75.60
9796;BME280;4937;42.680;27.704;2024-03-08T08:17:46;101899.75;;;7.44;75.75
9796;BME280;4937;42.680;27.704;2024-03-08T08:20:12;101906.03;;;7.41;75.65
9796;BME280;4937;42.680;27.704;2024-03-08T08:22:42;101904.03;;;7.38;76.19
9796;BME280;4937;42.680;27.704;2024-03-08T08:25:10;101905.22;;;7.34;76.74
9796;BME280;4937;42.680;27.704;2024-03-08T08:27:41;101904.78;;;7.28;76.67
9796;BME280;4937;42.680;27.704;2024-03-08T08:30:10;101908.69;;;7.27;77.00
9796;BME280;4937;42.680;27.704;2024-03-08T08:32:36;101900.84;;;7.19;77.55
9796;BME280;4937;42.680;27.704;2024-03-08T08:35:03;101909.06;;;7.22;77.49
9796;BME280;4937;42.680;27.704;2024-03-08T08:37:30;101911.03;;;7.22;77.64
9796;BME280;4937;42.680;27.704;2024-03-08T08:39:56;101907.94;;;7.27;77.82
9796;BME280;4937;42.680;27.704;2024-03-08T08:42:23;101900.47;;;7.27;77.87
9796;BME280;4937;42.680;27.704;2024-03-08T08:44:48;101905.22;;;7.34;77.57
9796;BME280;4937;42.680;27.704;2024-03-08T08:47:16;101900.47;;;7.27;76.88
9796;BME280;4937;42.680;27.704;2024-03-08T08:49:44;101913.44;;;7.34;77.47
9796;BME280;4937;42.680;27.704;2024-03-08T08:52:12;101909.50;;;7.31;76.65
9796;BME280;4937;42.680;27.704;2024-03-08T08:54:37;101907.94;;;7.30;77.19
9796;BME280;4937;42.680;27.704;2024-03-08T08:57:03;101914.16;;;7.24;77.02
9796;BME280;4937;42.680;27.704;2024-03-08T08:59:33;101909.88;;;7.26;78.00
9796;BME280;4937;42.680;27.704;2024-03-08T09:01:58;101905.13;;;7.20;77.42
9796;BME280;4937;42.680;27.704;2024-03-08T09:04:24;101915.34;;;7.23;77.62
9796;BME280;4937;42.680;27.704;2024-03-08T09:06:49;101913.75;;;7.22;77.95
9796;BME280;4937;42.680;27.704;2024-03-08T09:09:15;101913.75;;;7.22;77.92
9796;BME280;4937;42.680;27.704;2024-03-08T09:11:42;101913.38;;;7.23;78.02
9796;BME280;4937;42.680;27.704;2024-03-08T09:14:08;101922.38;;;7.20;78.84
9796;BME280;4937;42.680;27.704;2024-03-08T09:16:34;101915.72;;;7.18;77.95
9796;BME280;4937;42.680;27.704;2024-03-08T09:18:59;101916.06;;;7.09;78.42
9796;BME280;4937;42.680;27.704;2024-03-08T09:21:25;101920.41;;;7.14;78.56
9796;BME280;4937;42.680;27.704;2024-03-08T09:23:52;101929.06;;;7.19;78.79
9796;BME280;4937;42.680;27.704;2024-03-08T09:26:19;101931.44;;;7.28;78.33
9796;BME280;4937;42.680;27.704;2024-03-08T09:28:44;101933.81;;;7.36;78.58
9796;BME280;4937;42.680;27.704;2024-03-08T09:31:11;101933.44;;;7.38;77.86
9796;BME280;4937;42.680;27.704;2024-03-08T09:33:37;101924.81;;;7.36;77.67
9796;BME280;4937;42.680;27.704;2024-03-08T09:36:02;101931.06;;;7.33;77.57
9796;BME280;4937;42.680;27.704;2024-03-08T09:38:29;101932.66;;;7.37;77.60
9796;BME280;4937;42.680;27.704;2024-03-08T09:40:54;101922.09;;;7.46;77.99
9796;BME280;4937;42.680;27.704;2024-03-08T09:43:22;101925.25;;;7.52;77.81
9796;BME280;4937;42.680;27.704;2024-03-08T09:45:49;101926.81;;;7.49;78.91
9796;BME280;4937;42.680;27.704;2024-03-08T09:48:17;101939.38;;;7.54;79.19
9796;BME280;4937;42.680;27.704;2024-03-08T09:50:44;101932.72;;;7.62;79.62
9796;BME280;4937;42.680;27.704;2024-03-08T09:53:11;101925.69;;;7.68;78.70
9796;BME280;4937;42.680;27.704;2024-03-08T09:55:37;101927.28;;;7.65;78.23
9796;BME280;4937;42.680;27.704;2024-03-08T09:58:08;101930.78;;;7.66;79.16
9796;BME280;4937;42.680;27.704;2024-03-08T10:00:41;101928.44;;;7.75;77.69
9796;BME280;4937;42.680;27.704;2024-03-08T10:03:07;101937.88;;;7.74;78.14
9796;BME280;4937;42.680;27.704;2024-03-08T10:05:34;101932.38;;;7.70;78.35
9796;BME280;4937;42.680;27.704;2024-03-08T10:08:00;101941.41;;;7.78;77.54
9796;BME280;4937;42.680;27.704;2024-03-08T10:10:25;101941.41;;;7.78;77.41
9796;BME280;4937;42.680;27.704;2024-03-08T10:12:51;101939.81;;;7.77;77.27
9796;BME280;4937;42.680;27.704;2024-03-08T10:15:17;101934.72;;;7.79;78.01
9796;BME280;4937;42.680;27.704;2024-03-08T10:17:43;101937.47;;;7.82;77.24
9796;BME280;4937;42.680;27.704;2024-03-08T10:20:18;101944.16;;;7.88;77.68
9796;BME280;4937;42.680;27.704;2024-03-08T10:22:44;101942.97;;;7.86;77.23
9796;BME280;4937;42.680;27.704;2024-03-08T10:25:13;101939.88;;;7.91;77.59
9796;BME280;4937;42.680;27.704;2024-03-08T10:27:39;101940.28;;;7.96;77.35
9796;BME280;4937;42.680;27.704;2024-03-08T10:30:10;101943.41;;;7.98;76.99
9796;BME280;4937;42.680;27.704;2024-03-08T10:32:37;101941.06;;;8.04;77.17
9796;BME280;4937;42.680;27.704;2024-03-08T10:35:03;101939.13;;;8.15;77.73
9796;BME280;4937;42.680;27.704;2024-03-08T10:37:29;101939.13;;;8.22;76.51
9796;BME280;4937;42.680;27.704;2024-03-08T10:40:03;101947.00;;;8.38;77.08
9796;BME280;4937;42.680;27.704;2024-03-08T10:42:40;101938.75;;;8.48;76.50
9796;BME280;4937;42.680;27.704;2024-03-08T10:45:15;101941.91;;;8.54;75.62
9796;BME280;4937;42.680;27.704;2024-03-08T10:47:45;101935.63;;;8.50;74.71
9796;BME280;4937;42.680;27.704;2024-03-08T10:50:19;101939.91;;;8.51;75.02
9796;BME280;4937;42.680;27.704;2024-03-08T10:52:51;101937.56;;;8.46;75.70
9796;BME280;4937;42.680;27.704;2024-03-08T10:55:18;101934.03;;;8.42;75.72
9796;BME280;4937;42.680;27.704;2024-03-08T10:57:45;101937.19;;;8.44;76.63
9796;BME280;4937;42.680;27.704;2024-03-08T11:00:12;101937.97;;;8.55;73.49
9796;BME280;4937;42.680;27.704;2024-03-08T11:02:38;101936.00;;;8.62;72.02
9796;BME280;4937;42.680;27.704;2024-03-08T11:05:04;101933.25;;;8.62;72.63
9796;BME280;4937;42.680;27.704;2024-03-08T11:07:34;101930.50;;;8.59;72.32
9796;BME280;4937;42.680;27.704;2024-03-08T11:10:03;101934.03;;;8.63;71.74
9796;BME280;4937;42.680;27.704;2024-03-08T11:12:38;101940.72;;;8.55;73.30
9796;BME280;4937;42.680;27.704;2024-03-08T11:15:11;101942.25;;;8.56;73.05
9796;BME280;4937;42.680;27.704;2024-03-08T11:20:15;101941.09;;;8.67;73.53
9796;BME280;4937;42.680;27.704;2024-03-08T11:22:42;101930.88;;;8.71;73.42
9796;BME280;4937;42.680;27.704;2024-03-08T11:25:31;101929.31;;;8.77;73.45
9796;BME280;4937;42.680;27.704;2024-03-08T11:30:45;101932.41;;;8.86;72.38
9796;BME280;4937;42.680;27.704;2024-03-08T11:33:14;101934.78;;;8.84;72.39
9796;BME280;4937;42.680;27.704;2024-03-08T11:35:42;101940.28;;;8.77;72.54
9796;BME280;4937;42.680;27.704;2024-03-08T11:38:10;101935.56;;;8.71;73.08
9796;BME280;4937;42.680;27.704;2024-03-08T11:40:35;101932.84;;;8.67;71.51
9796;BME280;4937;42.680;27.704;2024-03-08T11:43:01;101931.69;;;8.51;73.25
9796;BME280;4937;42.680;27.704;2024-03-08T11:45:33;101925.81;;;8.38;72.81
9796;BME280;4937;42.680;27.704;2024-03-08T11:48:02;101932.84;;;8.32;72.26
9796;BME280;4937;42.680;27.704;2024-03-08T11:50:29;101933.25;;;8.34;73.28
9796;BME280;4937;42.680;27.704;2024-03-08T11:53:00;101937.53;;;8.21;72.82
9796;BME280;4937;42.680;27.704;2024-03-08T11:55:26;101931.28;;;8.21;74.13
9796;BME280;4937;42.680;27.704;2024-03-08T11:58:03;101936.81;;;8.24;73.91
9796;BME280;4937;42.680;27.704;2024-03-08T12:03:04;101942.63;;;8.19;72.43
9796;BME280;4937;42.680;27.704;2024-03-08T12:05:31;101934.00;;;8.17;73.48
9796;BME280;4937;42.680;27.704;2024-03-08T12:07:58;101944.22;;;8.20;73.72
9796;BME280;4937;42.680;27.704;2024-03-08T12:10:24;101936.38;;;8.22;73.83
9796;BME280;4937;42.680;27.704;2024-03-08T12:12:52;101937.94;;;8.20;72.87
9796;BME280;4937;42.680;27.704;2024-03-08T12:15:20;101939.13;;;8.22;72.48
9796;BME280;4937;42.680;27.704;2024-03-08T12:17:48;101938.69;;;8.06;73.97
9796;BME280;4937;42.680;27.704;2024-03-08T12:20:24;101948.13;;;8.23;73.92
9796;BME280;4937;42.680;27.704;2024-03-08T12:22:57;101929.75;;;8.37;73.65
9796;BME280;4937;42.680;27.704;2024-03-08T12:25:42;101935.59;;;8.32;72.62
9796;BME280;4937;42.680;27.704;2024-03-08T12:28:09;101932.06;;;8.25;71.89
9796;BME280;4937;42.680;27.704;2024-03-08T12:30:45;101942.69;;;8.33;73.03
9796;BME280;4937;42.680;27.704;2024-03-08T12:33:12;101922.25;;;8.45;72.05
9796;BME280;4937;42.680;27.704;2024-03-08T12:35:38;101932.84;;;8.22;71.02
9796;BME280;4937;42.680;27.704;2024-03-08T12:38:04;101937.97;;;8.27;70.45
9796;BME280;4937;42.680;27.704;2024-03-08T12:40:32;101941.09;;;8.36;71.47
9796;BME280;4937;42.680;27.704;2024-03-08T12:43:01;101934.00;;;8.17;70.09
9796;BME280;4937;42.680;27.704;2024-03-08T12:45:27;101931.69;;;8.37;71.26
9796;BME280;4937;42.680;27.704;2024-03-08T12:47:54;101930.88;;;8.47;69.76
9796;BME280;4937;42.680;27.704;2024-03-08T12:50:21;101932.06;;;8.49;70.71
9796;BME280;4937;42.680;27.704;2024-03-08T12:52:47;101926.56;;;8.49;69.37
9796;BME280;4937;42.680;27.704;2024-03-08T12:55:14;101929.31;;;8.53;69.57
9796;BME280;4937;42.680;27.704;2024-03-08T12:57:39;101926.97;;;8.51;69.70
9796;BME280;4937;42.680;27.704;2024-03-08T13:00:05;101924.63;;;8.50;70.25
9796;BME280;4937;42.680;27.704;2024-03-08T13:02:31;101930.13;;;8.53;69.08
9796;BME280;4937;42.680;27.704;2024-03-08T13:04:58;101930.50;;;8.52;68.62
9796;BME280;4937;42.680;27.704;2024-03-08T13:07:24;101925.00;;;8.38;69.98
9796;BME280;4937;42.680;27.704;2024-03-08T13:09:53;101933.25;;;8.41;71.20
9796;BME280;4937;42.680;27.704;2024-03-08T13:12:20;101928.56;;;8.31;70.60
9796;BME280;4937;42.680;27.704;2024-03-08T13:14:46;101940.72;;;8.37;70.83
9796;BME280;4937;42.680;27.704;2024-03-08T13:17:13;101937.59;;;8.35;69.96